Nearby METAR Reports

 

KCMA - Camarillo, California, USA
Distance from station: WSW 4mi, 7km
Updated: Mon, 24-Jul-2017 10:55am PDT
Clear
Clear
 Wind from SSW
Wind: SSW 8 mph , 13 km/h
Temperature: 72°F , 22°C
Dew Point: 63°F , 17°C
Humidity: 73%
Barometer: 29.93 inHg , 1013.5 hPa
Clouds: Clear
Visibility: 10 miles , 16 km
2017/07/24 17:55 KCMA 241755Z 21007KT 10SM CLR 22/17 A2993 RMK AO2 SLP143 T02220172 10233 20189 53007
KNTD - Point Mugu Nas, California, USA
Distance from station: SSW 9mi, 15km
Updated: Mon, 24-Jul-2017 10:56am PDT
Mostly cloudy
Mostly cloudy
 Wind from SW
Wind: SW 10 mph , 17 km/h
Temperature: 70°F , 21°C
Dew Point: 63°F , 17°C
Humidity: 78%
Barometer: 29.94 inHg , 1013.9 hPa
Clouds: Mostly cloudy
Visibility: 10 miles , 16 km
Cloud details: Mostly cloudy 1000 ft
2017/07/24 17:56 KNTD 241756Z 23009KT 10SM BKN010 21/17 A2994 RMK AO2 SLP140 T02110167 10217 20189 $
 
KOXR - Oxnard, California, USA
Distance from station: WSW 10mi, 16km
Updated: Mon, 24-Jul-2017 10:51am PDT
Mostly cloudy
Mostly cloudy
 Wind from SSW
Wind: SSW 6 mph , 9 km/h
Temperature: 70°F , 21°C
Dew Point: 63°F , 17°C
Humidity: 78%
Barometer: 29.93 inHg , 1013.5 hPa
Clouds: Mostly cloudy
Visibility: 7 miles , 11 km
Cloud details: Partly cloudy 1300 ft
Mostly cloudy 12000 ft
2017/07/24 17:51 KOXR 241751Z 21005KT 7SM SCT013 BKN120 21/17 A2993 RMK AO2 SLP135 T02060172 10211 20189 53009
KVNY - Van Nuys, California, USA
Distance from station: E 31mi, 50km
Updated: Mon, 24-Jul-2017 10:51am PDT
Clear
Clear
 Wind from ESE
Wind: ESE 9 mph , 15 km/h
Temperature: 82°F , 28°C
Dew Point: 54°F , 12°C
Humidity: 37%
Barometer: 29.94 inHg , 1013.9 hPa
Clouds: Clear
Visibility: 10 miles , 16 km
2017/07/24 17:51 KVNY 241751Z 11008KT 10SM CLR 28/12 A2994 RMK AO2 SLP128 T02830122 10289 20189 51005
 
KWHP - La / Whiteman, California, USA
Distance from station: E 35mi, 56km
Updated: Mon, 24-Jul-2017 9:55am PDT
NOT Current
Mostly cloudy
Mostly cloudy
 Wind from SE
Wind: SE 6 mph , 9 km/h
Temperature: 73°F , 23°C
Dew Point: 57°F , 14°C
Humidity: 57%
Barometer: 29.98 inHg , 1015.2 hPa
Clouds: Mostly cloudy
Visibility: 10 miles , 16 km
Cloud details: Mostly cloudy 15000 ft
2017/07/24 16:55 KWHP 241655Z 13005KT 10SM BKN150 23/14 A2998
KSMO - Santa Monica, California, USA
Distance from station: ESE 36mi, 58km
Updated: Mon, 24-Jul-2017 10:51am PDT
Mostly cloudy
Mostly cloudy
 Wind from SSW
Wind: SSW 5 mph , 7 km/h
Temperature: 73°F , 23°C
Dew Point: 64°F , 18°C
Humidity: 74%
Barometer: 29.94 inHg , 1013.9 hPa
Clouds: Mostly cloudy
Visibility: 10 miles , 16 km
Cloud details: Mostly cloudy 15000 ft
2017/07/24 17:51 KSMO 241751Z 21004KT 10SM BKN150 23/18 A2994 RMK AO2 SLP137 T02330183 10239 20200 51009
 
KBUR - Burbank, California, USA
Distance from station: E 38mi, 61km
Updated: Mon, 24-Jul-2017 10:53am PDT
Haze, Clear
Haze, Clear
 Wind from SE
Wind: SE 14 mph , 22 km/h
Temperature: 79°F , 26°C
Dew Point: 55°F , 13°C
Humidity: 45%
Barometer: 29.94 inHg , 1013.9 hPa
Summary: Haze
Clouds: Clear
Visibility: 10 miles , 16 km
2017/07/24 17:53 KBUR 241753Z 13012KT 10SM HZ CLR 26/13 A2994 RMK AO2 SLP125 T02610128 10267 20194 51006 $
KSDB - Sandberg, California, USA
Distance from station: NNE 40mi, 64km
Updated: Mon, 24-Jul-2017 10:53am PDT
Partly cloudy
Partly cloudy
 Wind from S
Wind: S 22 mph , 35 km/h, Gust: 30 mph , 48 km/h
Temperature: 81°F , 27°C
Dew Point: 16°F , -9°C
Humidity: 9%
Barometer: 30.09 inHg , 1019 hPa
Clouds: Partly cloudy
Visibility: 10 miles , 16 km
Cloud details: Partly cloudy 10000 ft
2017/07/24 17:53 KSDB 241753Z AUTO 18019G26KT 10SM SCT100 27/M09 A3009 RMK AO2 PK WND 18026/1751 SLP131 T02671094 10278 20189 51007
 
KLAX - Los Angeles, California, USA
Distance from station: ESE 42mi, 68km
Updated: Mon, 24-Jul-2017 10:53am PDT
Mostly cloudy
Mostly cloudy
 Wind from WSW
Wind: WSW 8 mph , 13 km/h
Temperature: 73°F , 23°C
Dew Point: 64°F , 18°C
Humidity: 74%
Barometer: 29.94 inHg , 1013.9 hPa
Clouds: Mostly cloudy
Visibility: 8 miles , 13 km
Cloud details: Few Clouds 1900 ft
Partly cloudy 12000 ft
Mostly cloudy 15000 ft
Mostly cloudy 20000 ft
2017/07/24 17:53 KLAX 241753Z 24007KT 8SM FEW019 SCT120 BKN150 BKN200 23/18 A2994 RMK AO2 SLP136 T02330183 10239 20200 51009
KCQT - Los Angeles, California, USA
Distance from station: ESE 45mi, 73km
Updated: Mon, 24-Jul-2017 10:47am PDT
Clear
Clear
 Wind from varies
Wind: varies 3 mph , 6 km/h
Temperature: 81°F , 27°C
Heat Index: 82°F , 28°C
Dew Point: 63°F , 17°C
Humidity: 54%
Barometer: 29.92 inHg , 1013.2 hPa
Clouds: Clear
Visibility: 10 miles , 16 km
2017/07/24 17:47 KCQT 241747Z AUTO VRB03KT 10SM CLR 27/17 A2992 RMK AO2 SLP130 T02670167 10283 20206 51006 $
 
KHHR - Hawthorne, California, USA
Distance from station: ESE 45mi, 73km
Updated: Mon, 24-Jul-2017 10:53am PDT
Clear
Clear
 Wind from SSW
Wind: SSW 6 mph , 9 km/h
Temperature: 75°F , 24°C
Dew Point: 64°F , 18°C
Humidity: 69%
Barometer: 29.94 inHg , 1013.9 hPa
Clouds: Clear
Visibility: 10 miles , 16 km
2017/07/24 17:53 KHHR 241753Z 21005KT 10SM CLR 24/18 A2994 RMK AO2 SLP136 T02440178 10244 20200 51008
KSBA - Santa Barbara, California, USA
Distance from station: WNW 49mi, 79km
Updated: Mon, 24-Jul-2017 10:53am PDT
Partly cloudy
Partly cloudy
 Wind from S
Wind: S 9 mph , 15 km/h
Temperature: 72°F , 22°C
Dew Point: 64°F , 18°C
Humidity: 78%
Barometer: 29.93 inHg , 1013.5 hPa
Clouds: Partly cloudy
Visibility: 9 miles , 14 km
Cloud details: Few Clouds 800 ft
Partly cloudy 1800 ft
2017/07/24 17:53 KSBA 241753Z 17008KT 9SM FEW008 SCT018 22/18 A2993 RMK AO2 SLP135 T02170178 10222 20167 51008